Time;durP1;ratioP1;P1;durP2;ratioP2;P2;SDS_P1;SDS_P2;PMS_P1;PMS_P2;Temp;Humidity;BMP_temperature;BMP_pressure;BME280_temperature;BME280_humidity;BME280_pressure;Samples;Min_cycle;Max_cycle;Signal;HPM_P1;HPM_P2
2021/11/27 00:00:31;;;;;;;10.13;9.05;;;6.00;99.90;;;;;;6272096;22;20201;-65
2021/11/27 00:03:10;;;;;;;11.27;9.75;;;6.00;99.90;;;;;;6272961;22;20231;-67
2021/11/27 00:05:39;;;;;;;10.40;9.40;;;6.00;99.90;;;;;;6249276;23;20472;-65
2021/11/27 00:08:10;;;;;;;10.95;9.93;;;6.00;99.90;;;;;;6249143;22;20219;-65
2021/11/27 00:10:38;;;;;;;11.93;10.63;;;6.00;99.90;;;;;;6247020;23;20165;-67
2021/11/27 00:13:06;;;;;;;13.18;10.80;;;5.90;99.90;;;;;;6246693;22;20200;-65
2021/11/27 00:15:34;;;;;;;14.32;10.73;;;5.90;99.90;;;;;;6247107;22;20161;-64
2021/11/27 00:18:04;;;;;;;13.55;10.75;;;5.90;99.90;;;;;;6246966;23;20245;-66
2021/11/27 00:20:34;;;;;;;12.80;10.75;;;5.90;99.90;;;;;;6247163;23;20211;-67
2021/11/27 00:23:01;;;;;;;12.80;10.38;;;6.00;99.90;;;;;;6248520;23;20196;-67
2021/11/27 00:25:29;;;;;;;12.88;10.13;;;5.90;99.90;;;;;;6246955;23;20166;-67
2021/11/27 00:27:56;;;;;;;12.60;10.13;;;6.00;99.90;;;;;;6247128;23;20200;-64
2021/11/27 00:30:25;;;;;;;14.27;11.95;;;6.00;99.90;;;;;;6247274;22;20225;-66
2021/11/27 00:32:57;;;;;;;19.17;12.50;;;6.00;99.90;;;;;;6246968;23;20740;-67
2021/11/27 00:35:24;;;;;;;14.50;10.68;;;5.90;99.90;;;;;;6247164;23;20157;-66
2021/11/27 00:37:56;;;;;;;12.02;10.77;;;6.00;99.90;;;;;;6246764;23;20184;-67
2021/11/27 00:40:26;;;;;;;14.30;11.95;;;5.90;99.90;;;;;;6247027;23;20226;-67
2021/11/27 00:42:54;;;;;;;12.30;9.88;;;6.00;99.90;;;;;;6246771;22;20267;-65
2021/11/27 00:45:25;;;;;;;14.25;10.63;;;5.90;99.90;;;;;;6248739;23;20157;-67
2021/11/27 00:47:55;;;;;;;14.93;11.57;;;5.90;99.90;;;;;;6247366;23;20181;-67
2021/11/27 00:50:25;;;;;;;13.52;11.95;;;5.90;99.90;;;;;;6247225;22;20167;-64
2021/11/27 00:52:55;;;;;;;14.38;11.60;;;5.90;99.90;;;;;;6246561;23;20216;-67
2021/11/27 00:55:22;;;;;;;12.82;10.45;;;5.90;99.90;;;;;;6246601;23;20164;-64
2021/11/27 00:57:49;;;;;;;14.52;11.95;;;5.90;99.90;;;;;;6246176;23;20203;-64
2021/11/27 01:00:20;;;;;;;14.63;11.77;;;5.90;99.90;;;;;;6245921;22;20201;-64
2021/11/27 01:02:47;;;;;;;13.35;11.93;;;5.90;99.90;;;;;;6246427;23;20770;-64
2021/11/27 01:05:14;;;;;;;14.52;11.85;;;6.00;99.90;;;;;;6246425;22;20607;-64
2021/11/27 01:07:42;;;;;;;14.68;12.00;;;5.90;99.90;;;;;;6246113;23;20176;-64
2021/11/27 01:10:13;;;;;;;14.40;11.27;;;5.90;99.90;;;;;;6248534;22;20161;-65
2021/11/27 01:12:41;;;;;;;15.35;11.73;;;5.90;99.90;;;;;;6246242;23;20185;-66
2021/11/27 01:15:10;;;;;;;14.38;11.75;;;5.90;99.90;;;;;;6246304;23;20165;-64
2021/11/27 01:17:36;;;;;;;15.07;12.00;;;5.90;99.90;;;;;;6246333;23;20558;-65
2021/11/27 01:20:07;;;;;;;16.47;12.70;;;5.90;99.90;;;;;;6246208;22;20161;-67
2021/11/27 01:22:33;;;;;;;15.48;12.00;;;5.90;99.90;;;;;;6246314;23;20784;-67
2021/11/27 01:25:06;;;;;;;13.48;11.02;;;5.90;99.90;;;;;;6246377;23;20185;-67
2021/11/27 01:27:32;;;;;;;15.13;11.75;;;5.90;99.90;;;;;;6245288;23;20231;-67
2021/11/27 01:29:58;;;;;;;14.93;11.02;;;5.90;99.90;;;;;;6246238;23;20164;-64
2021/11/27 01:32:24;;;;;;;15.05;11.70;;;5.90;99.90;;;;;;6246116;23;20634;-67
2021/11/27 01:34:53;;;;;;;16.30;12.60;;;5.80;99.90;;;;;;6246324;22;20492;-67
2021/11/27 01:37:22;;;;;;;13.32;11.05;;;5.80;99.90;;;;;;6246254;23;20157;-64
2021/11/27 01:39:57;;;;;;;15.10;12.20;;;5.80;99.90;;;;;;6246309;23;20247;-67
2021/11/27 01:42:26;;;;;;;17.15;12.00;;;5.70;99.90;;;;;;6245849;23;20236;-67
2021/11/27 01:44:53;;;;;;;14.38;11.32;;;5.80;99.90;;;;;;6246112;22;20496;-67
2021/11/27 01:47:19;;;;;;;17.30;12.27;;;5.80;99.90;;;;;;6245881;23;20163;-67
2021/11/27 01:49:46;;;;;;;18.05;11.68;;;5.70;99.90;;;;;;6245043;23;20161;-67
2021/11/27 01:52:13;;;;;;;15.20;11.63;;;5.70;99.90;;;;;;6245840;22;20158;-65
2021/11/27 01:54:41;;;;;;;17.67;12.25;;;5.70;99.90;;;;;;6246136;23;20543;-67
2021/11/27 01:57:08;;;;;;;16.60;11.48;;;5.70;99.90;;;;;;6245933;23;20161;-66
2021/11/27 01:59:38;;;;;;;17.67;12.10;;;5.70;99.90;;;;;;6245630;23;20204;-64
2021/11/27 02:02:14;;;;;;;16.60;11.98;;;5.70;99.90;;;;;;6246014;23;20562;-67
2021/11/27 02:04:43;;;;;;;17.00;12.18;;;5.70;99.90;;;;;;6245982;23;20164;-65
2021/11/27 02:07:12;;;;;;;19.63;13.38;;;5.60;99.90;;;;;;6245957;22;20201;-67
2021/11/27 02:09:44;;;;;;;16.48;12.02;;;5.60;99.90;;;;;;6244977;23;20161;-69
2021/11/27 02:12:14;;;;;;;19.25;13.13;;;5.60;99.90;;;;;;6245542;22;20569;-67
2021/11/27 02:14:41;;;;;;;16.30;12.00;;;5.60;99.90;;;;;;6247439;22;20641;-67
2021/11/27 02:17:09;;;;;;;17.45;12.80;;;5.60;99.90;;;;;;6245715;23;20295;-67
2021/11/27 02:19:37;;;;;;;19.10;12.77;;;5.50;99.90;;;;;;6245613;22;20165;-67
2021/11/27 02:22:04;;;;;;;19.63;14.13;;;5.50;99.90;;;;;;6245637;22;20204;-64
2021/11/27 02:24:30;;;;;;;19.48;14.00;;;5.40;99.90;;;;;;6245687;23;20563;-64
2021/11/27 02:26:57;;;;;;;20.00;13.13;;;5.40;99.90;;;;;;6247175;23;20595;-65
2021/11/27 02:29:35;;;;;;;20.13;13.15;;;5.40;99.90;;;;;;6247421;23;20194;-67
2021/11/27 02:32:02;;;;;;;19.65;13.93;;;5.30;99.90;;;;;;6245711;23;20181;-64
2021/11/27 02:34:28;;;;;;;20.23;14.77;;;5.30;99.90;;;;;;6247311;22;20200;-64
2021/11/27 02:37:00;;;;;;;18.83;12.32;;;5.30;99.90;;;;;;6245551;22;20157;-67
2021/11/27 02:39:27;;;;;;;18.58;13.30;;;5.30;99.90;;;;;;6245252;23;20189;-64
2021/11/27 02:41:58;;;;;;;21.73;14.25;;;5.30;99.90;;;;;;6245521;23;20614;-67
2021/11/27 02:44:26;;;;;;;18.85;13.70;;;5.30;99.90;;;;;;6245040;23;20217;-65
2021/11/27 02:46:53;;;;;;;21.35;13.55;;;5.30;99.90;;;;;;6245172;23;20184;-67
2021/11/27 02:49:20;;;;;;;22.88;13.32;;;5.30;99.90;;;;;;6245241;22;20243;-66
2021/11/27 02:51:59;;;;;;;23.38;14.18;;;5.20;99.90;;;;;;6245136;23;20232;-67
2021/11/27 02:54:28;;;;;;;21.13;13.70;;;5.20;99.90;;;;;;6245438;23;20204;-67
2021/11/27 02:56:55;;;;;;;20.10;13.82;;;5.20;99.90;;;;;;6245481;23;20157;-67
2021/11/27 02:59:28;;;;;;;21.48;13.70;;;5.20;99.90;;;;;;6244356;22;20193;-64
2021/11/27 03:01:56;;;;;;;21.23;14.35;;;5.20;99.90;;;;;;6245744;23;20646;-64
2021/11/27 03:04:24;;;;;;;24.55;15.75;;;5.10;99.90;;;;;;6245717;22;20185;-67
2021/11/27 03:06:51;;;;;;;24.52;15.95;;;5.10;99.90;;;;;;6245220;23;20165;-67
2021/11/27 03:09:23;;;;;;;26.13;15.88;;;5.10;99.90;;;;;;6245079;22;20185;-67
2021/11/27 03:11:52;;;;;;;26.45;14.30;;;5.00;99.90;;;;;;6245621;23;20217;-64
2021/11/27 03:14:21;;;;;;;20.85;14.68;;;5.00;99.90;;;;;;6246688;22;20578;-64
2021/11/27 03:16:48;;;;;;;24.63;15.27;;;4.90;99.90;;;;;;6245201;23;20163;-64
2021/11/27 03:19:18;;;;;;;26.42;16.10;;;4.90;99.90;;;;;;6244947;22;20185;-64
2021/11/27 03:21:44;;;;;;;24.60;15.77;;;4.80;99.90;;;;;;6244831;22;20192;-64
2021/11/27 03:24:16;;;;;;;29.83;17.25;;;4.80;99.90;;;;;;6245095;22;20181;-67
2021/11/27 03:26:43;;;;;;;26.20;16.60;;;4.80;99.90;;;;;;6245480;23;20608;-64
2021/11/27 03:29:09;;;;;;;35.17;16.60;;;4.80;99.90;;;;;;6245369;23;20237;-65
2021/11/27 03:31:35;;;;;;;28.48;16.83;;;4.80;99.90;;;;;;6245309;23;20218;-64
2021/11/27 03:34:01;;;;;;;25.92;16.08;;;4.80;99.90;;;;;;6245127;23;20201;-67
2021/11/27 03:36:29;;;;;;;30.23;17.70;;;4.70;99.90;;;;;;6245171;23;20157;-65
2021/11/27 03:38:55;;;;;;;24.92;16.13;;;4.70;99.90;;;;;;6245096;22;20250;-64
2021/11/27 03:41:43;;;;;;;35.13;19.47;;;4.70;99.90;;;;;;6245196;23;20236;-65
2021/11/27 03:44:16;;;;;;;36.10;21.33;;;4.70;99.90;;;;;;6245242;23;20393;-67
2021/11/27 03:46:44;;;;;;;34.30;21.25;;;4.70;99.90;;;;;;6244920;23;20161;-64
2021/11/27 03:49:10;;;;;;;31.70;19.00;;;4.70;99.90;;;;;;6244666;23;20181;-64
2021/11/27 03:51:36;;;;;;;30.90;18.42;;;4.70;99.90;;;;;;6244723;22;20231;-64
2021/11/27 03:54:03;;;;;;;27.30;15.93;;;4.70;99.90;;;;;;6245354;23;20668;-64
2021/11/27 03:56:29;;;;;;;29.00;17.15;;;4.70;99.90;;;;;;6244921;22;20843;-64
2021/11/27 03:59:02;;;;;;;30.67;18.02;;;4.70;99.90;;;;;;6244994;23;20264;-64
2021/11/27 04:01:30;;;;;;;33.63;18.00;;;4.70;99.90;;;;;;6244740;23;20201;-64
2021/11/27 04:03:57;;;;;;;27.73;17.25;;;4.70;99.90;;;;;;6244897;23;20521;-64
2021/11/27 04:06:23;;;;;;;26.83;16.27;;;4.70;99.90;;;;;;6245074;22;20592;-64
2021/11/27 04:08:50;;;;;;;31.70;17.23;;;4.60;99.90;;;;;;6246410;22;20694;-64
2021/11/27 04:11:17;;;;;;;36.63;21.02;;;4.60;99.90;;;;;;6244868;23;20157;-64
2021/11/27 04:13:54;;;;;;;34.40;18.10;;;4.60;99.90;;;;;;6243949;22;20193;-67
2021/11/27 04:16:21;;;;;;;28.73;16.73;;;4.60;99.90;;;;;;6244998;23;20157;-64
2021/11/27 04:18:55;;;;;;;30.38;18.80;;;4.60;99.90;;;;;;6244403;23;20180;-67
2021/11/27 04:21:22;;;;;;;31.75;18.92;;;4.60;99.90;;;;;;6245321;23;20275;-67
2021/11/27 04:23:49;;;;;;;30.65;17.33;;;4.60;99.90;;;;;;6244933;23;20173;-69
2021/11/27 04:26:16;;;;;;;30.08;16.63;;;4.60;99.90;;;;;;6244912;23;20166;-64
2021/11/27 04:28:43;;;;;;;30.83;17.27;;;4.60;99.90;;;;;;6244479;23;20177;-69
2021/11/27 04:31:10;;;;;;;32.75;18.20;;;4.50;99.90;;;;;;6244654;23;20168;-65
2021/11/27 04:33:36;;;;;;;28.48;16.95;;;4.50;99.90;;;;;;6245984;23;20203;-64
2021/11/27 04:36:04;;;;;;;29.95;18.15;;;4.50;99.90;;;;;;6248669;22;20228;-64
2021/11/27 04:38:31;;;;;;;32.88;18.58;;;4.50;99.90;;;;;;6247152;23;20299;-67
2021/11/27 04:40:58;;;;;;;30.70;17.25;;;4.40;99.90;;;;;;6246744;23;20161;-64
2021/11/27 04:43:24;;;;;;;30.83;17.52;;;4.40;99.90;;;;;;6246861;22;20205;-65
2021/11/27 04:45:53;;;;;;;29.23;17.30;;;4.40;99.90;;;;;;6247072;23;20172;-67
2021/11/27 04:48:21;;;;;;;29.83;16.85;;;4.40;99.90;;;;;;6246845;23;20230;-67
2021/11/27 04:50:47;;;;;;;34.47;17.95;;;4.40;99.90;;;;;;6246757;23;20161;-65
2021/11/27 04:53:14;;;;;;;31.40;18.52;;;4.30;99.90;;;;;;6246493;22;20192;-67
2021/11/27 04:55:43;;;;;;;36.17;19.90;;;4.40;99.90;;;;;;6246155;23;20180;-67
2021/11/27 04:58:10;;;;;;;30.58;18.48;;;4.40;99.90;;;;;;6246574;23;20177;-64
2021/11/27 05:00:46;;;;;;;33.45;18.75;;;4.40;99.90;;;;;;6245993;22;20205;-67
2021/11/27 05:03:12;;;;;;;29.50;18.13;;;4.40;99.90;;;;;;6246308;23;20176;-64
2021/11/27 05:05:38;;;;;;;29.20;17.23;;;4.40;99.90;;;;;;6246342;23;20231;-64
2021/11/27 05:08:05;;;;;;;34.43;18.23;;;4.40;99.90;;;;;;6246363;22;20181;-65
2021/11/27 05:10:32;;;;;;;33.45;18.70;;;4.40;99.90;;;;;;6246450;23;20887;-67
2021/11/27 05:12:58;;;;;;;33.25;18.25;;;4.40;99.90;;;;;;6246287;23;20278;-64
2021/11/27 05:15:25;;;;;;;33.97;19.02;;;4.50;99.90;;;;;;6246367;23;20169;-67
2021/11/27 05:17:51;;;;;;;29.38;16.92;;;4.50;99.90;;;;;;6245963;23;20626;-67
2021/11/27 05:20:18;;;;;;;27.58;16.35;;;4.50;99.90;;;;;;6246378;23;20161;-64
2021/11/27 05:22:45;;;;;;;31.45;17.20;;;4.50;99.90;;;;;;6246072;23;20215;-67
2021/11/27 05:25:15;;;;;;;32.72;17.52;;;4.50;99.90;;;;;;6246230;23;20161;-67
2021/11/27 05:27:43;;;;;;;29.63;16.88;;;4.50;99.90;;;;;;6245951;23;20689;-64
2021/11/27 05:30:12;;;;;;;28.13;17.70;;;4.60;99.90;;;;;;6245859;22;20243;-66
2021/11/27 05:32:50;;;;;;;37.22;18.08;;;4.60;99.90;;;;;;6245889;23;20381;-64
2021/11/27 05:35:16;;;;;;;31.88;17.80;;;4.60;99.90;;;;;;6246351;23;20156;-67
2021/11/27 05:37:44;;;;;;;34.45;18.45;;;4.60;99.90;;;;;;6246066;22;20618;-64
2021/11/27 05:40:10;;;;;;;28.90;16.95;;;4.70;99.90;;;;;;6246215;22;20196;-64
2021/11/27 05:42:38;;;;;;;33.38;18.77;;;4.70;99.90;;;;;;6245776;22;20180;-67
2021/11/27 05:45:10;;;;;;;28.48;17.63;;;4.70;99.90;;;;;;6245720;22;20165;-66
2021/11/27 05:47:40;;;;;;;29.83;17.65;;;4.70;99.90;;;;;;6245679;23;20181;-67
2021/11/27 05:50:07;;;;;;;33.45;18.45;;;4.70;99.90;;;;;;6245382;22;20157;-64
2021/11/27 05:52:34;;;;;;;32.38;17.27;;;4.70;99.90;;;;;;6244991;23;20204;-64
2021/11/27 05:55:01;;;;;;;30.83;15.93;;;4.70;99.90;;;;;;6245445;23;20165;-67
2021/11/27 05:57:27;;;;;;;34.58;17.42;;;4.80;99.90;;;;;;6245489;23;20181;-64
2021/11/27 05:59:53;;;;;;;24.97;15.47;;;4.80;99.90;;;;;;6245883;22;20324;-65
2021/11/27 06:02:20;;;;;;;32.65;16.65;;;4.80;99.90;;;;;;6247016;23;20690;-64
2021/11/27 06:04:46;;;;;;;31.08;18.55;;;4.90;99.90;;;;;;6245916;22;20165;-67
2021/11/27 06:07:12;;;;;;;41.78;23.42;;;4.90;99.90;;;;;;6246139;22;20259;-67
2021/11/27 06:09:41;;;;;;;52.58;29.42;;;5.00;99.90;;;;;;6245987;23;20165;-67
2021/11/27 06:12:07;;;;;;;51.08;27.63;;;5.00;99.90;;;;;;6245618;23;20499;-67
2021/11/27 06:14:34;;;;;;;78.47;54.90;;;5.10;99.90;;;;;;6245828;23;20207;-64
2021/11/27 06:17:01;;;;;;;40.28;24.25;;;5.10;99.90;;;;;;6245715;22;20173;-64
2021/11/27 06:19:51;;;;;;;28.95;17.85;;;5.10;99.90;;;;;;6245703;22;20228;-67
2021/11/27 06:22:21;;;;;;;29.98;17.65;;;5.00;99.90;;;;;;6245535;23;20207;-65
2021/11/27 06:24:46;;;;;;;30.08;17.80;;;4.90;99.90;;;;;;6245679;23;20171;-64
2021/11/27 06:27:13;;;;;;;32.00;19.63;;;4.80;99.90;;;;;;6245465;22;20531;-67
2021/11/27 06:29:40;;;;;;;31.85;19.75;;;4.80;99.90;;;;;;6245550;23;20622;-67
2021/11/27 06:32:09;;;;;;;37.63;20.75;;;4.70;99.90;;;;;;6245664;23;20177;-67
2021/11/27 06:34:38;;;;;;;34.50;19.50;;;4.60;99.90;;;;;;6244834;22;20196;-67
2021/11/27 06:37:04;;;;;;;38.22;20.92;;;4.60;99.90;;;;;;6245508;23;20632;-67
2021/11/27 06:39:30;;;;;;;33.58;19.48;;;4.60;99.90;;;;;;6245372;23;20161;-67
2021/11/27 06:42:00;;;;;;;32.17;19.73;;;4.50;99.90;;;;;;6245600;23;20167;-66
2021/11/27 06:44:26;;;;;;;29.33;17.10;;;4.50;99.90;;;;;;6247234;23;20867;-67
2021/11/27 06:46:53;;;;;;;34.37;18.20;;;4.40;99.90;;;;;;6245061;23;20184;-66
2021/11/27 06:49:24;;;;;;;30.35;19.17;;;4.40;99.90;;;;;;6244541;22;20913;-67
2021/11/27 06:51:54;;;;;;;27.48;18.90;;;4.40;99.90;;;;;;6246543;23;20148;-67
2021/11/27 06:54:20;;;;;;;30.40;18.52;;;4.40;99.90;;;;;;6243938;23;20205;-64
2021/11/27 06:56:46;;;;;;;33.72;20.90;;;4.40;99.90;;;;;;6245649;22;20640;-64
2021/11/27 06:59:13;;;;;;;35.33;20.95;;;4.50;99.90;;;;;;6244154;22;20177;-64
2021/11/27 07:01:40;;;;;;;31.60;18.75;;;4.50;99.90;;;;;;6245118;23;20598;-64
2021/11/27 07:04:19;;;;;;;33.60;19.70;;;4.60;99.90;;;;;;6244656;22;20581;-67
2021/11/27 07:06:50;;;;;;;32.53;20.58;;;4.70;99.90;;;;;;6246902;23;20244;-64
2021/11/27 07:09:16;;;;;;;31.92;19.77;;;4.70;99.90;;;;;;6245041;22;20429;-64
2021/11/27 07:11:42;;;;;;;34.53;19.05;;;4.80;99.90;;;;;;6245237;23;20169;-64
2021/11/27 07:14:09;;;;;;;40.67;23.80;;;4.80;99.90;;;;;;6243041;23;20204;-64
2021/11/27 07:16:48;;;;;;;35.97;20.42;;;4.80;99.90;;;;;;6244424;23;20373;-67
2021/11/27 07:19:17;;;;;;;29.55;17.70;;;4.90;99.90;;;;;;6244009;23;20244;-64
2021/11/27 07:21:44;;;;;;;27.13;16.77;;;5.00;99.90;;;;;;6246357;22;20157;-64
2021/11/27 07:24:10;;;;;;;27.73;17.73;;;5.20;99.90;;;;;;6243762;22;20288;-67
2021/11/27 07:26:38;;;;;;;28.55;17.75;;;5.40;99.90;;;;;;6244641;22;20391;-67
2021/11/27 07:29:05;;;;;;;32.53;17.75;;;5.50;99.90;;;;;;6246349;22;20617;-64
2021/11/27 07:31:31;;;;;;;25.27;16.15;;;5.70;99.90;;;;;;6245629;23;20164;-64
2021/11/27 07:33:57;;;;;;;25.70;14.55;;;5.90;99.90;;;;;;6244797;22;20193;-64
2021/11/27 07:36:41;;;;;;;25.70;14.68;;;6.30;99.90;;;;;;6243922;23;20150;-67
2021/11/27 07:39:11;;;;;;;21.35;13.38;;;6.90;99.90;;;;;;6169442;22;20619;-94
2021/11/27 07:41:37;;;;;;;21.03;13.43;;;7.50;99.90;;;;;;6159416;23;20175;-96
2021/11/27 07:44:03;;;;;;;32.60;18.27;;;7.80;99.90;;;;;;6160024;23;20166;-91
2021/11/27 07:46:32;;;;;;;23.77;14.57;;;8.30;99.90;;;;;;6159721;23;20177;-93
2021/11/27 07:48:57;;;;;;;20.35;13.73;;;8.80;99.90;;;;;;6176033;23;20423;-90
2021/11/27 07:51:23;;;;;;;21.50;13.70;;;9.50;99.90;;;;;;6177958;23;20631;-91
2021/11/27 07:53:49;;;;;;;21.47;13.17;;;10.10;99.90;;;;;;6162222;23;20198;-90
2021/11/27 07:56:15;;;;;;;24.37;16.10;;;10.80;99.90;;;;;;6161962;23;20486;-91
2021/11/27 07:58:41;;;;;;;41.67;27.27;;;11.20;99.90;;;;;;6161464;23;20162;-92
2021/11/27 08:01:10;;;;;;;30.10;21.20;;;11.50;99.90;;;;;;6160316;23;20186;-92
2021/11/27 08:03:37;;;;;;;22.48;16.73;;;11.80;99.90;;;;;;6164492;23;20411;-93
2021/11/27 08:06:04;;;;;;;21.30;15.32;;;11.90;99.90;;;;;;6172321;23;20174;-92
2021/11/27 08:08:30;;;;;;;24.33;16.63;;;12.00;99.90;;;;;;6162001;23;20166;-94
2021/11/27 08:10:56;;;;;;;25.40;16.33;;;11.80;99.90;;;;;;6165892;23;20177;-90
2021/11/27 08:13:23;;;;;;;20.45;14.80;;;11.40;99.90;;;;;;6169723;23;20205;-90
2021/11/27 08:15:49;;;;;;;22.63;14.43;;;11.00;99.90;;;;;;6181308;23;20185;-93
2021/11/27 08:18:15;;;;;;;23.25;16.23;;;10.50;99.90;;;;;;6168918;23;20158;-94
2021/11/27 08:20:41;;;;;;;21.70;15.77;;;10.20;99.90;;;;;;6169616;23;20189;-92
2021/11/27 08:23:08;;;;;;;21.63;15.00;;;10.10;99.90;;;;;;6162496;23;20481;-92
2021/11/27 08:25:35;;;;;;;26.25;16.60;;;9.90;99.90;;;;;;6162121;23;20396;-91
2021/11/27 08:28:02;;;;;;;20.38;14.80;;;9.60;99.90;;;;;;6162705;23;20222;-91
2021/11/27 08:30:29;;;;;;;24.45;16.83;;;9.40;99.90;;;;;;6163397;23;20512;-93
2021/11/27 08:32:55;;;;;;;26.20;15.60;;;9.50;99.90;;;;;;6171294;23;20198;-91
2021/11/27 08:35:24;;;;;;;28.35;16.15;;;9.80;99.90;;;;;;6162091;23;20225;-94
2021/11/27 08:37:50;;;;;;;24.42;16.40;;;10.10;99.90;;;;;;6172369;23;20445;-92
2021/11/27 08:40:17;;;;;;;29.33;17.00;;;10.30;99.90;;;;;;6216897;23;20642;-94
2021/11/27 08:42:44;;;;;;;28.13;17.17;;;10.30;99.90;;;;;;6215675;23;20162;-94
2021/11/27 08:45:12;;;;;;;26.73;16.75;;;10.10;99.90;;;;;;6221140;23;20186;-95
2021/11/27 08:47:38;;;;;;;23.45;15.63;;;10.10;99.90;;;;;;6220973;23;20482;-95
2021/11/27 08:50:06;;;;;;;26.02;16.83;;;10.20;99.90;;;;;;6219034;23;20225;-94
2021/11/27 08:52:32;;;;;;;24.92;16.77;;;10.40;99.90;;;;;;6215106;23;20300;-95
2021/11/27 08:54:58;;;;;;;26.38;16.52;;;10.80;99.90;;;;;;6214881;23;20212;-96
2021/11/27 08:57:28;;;;;;;22.30;14.87;;;11.30;99.90;;;;;;6216307;23;20158;-91
2021/11/27 08:59:55;;;;;;;25.38;15.80;;;11.40;99.90;;;;;;6223750;23;20414;-95
2021/11/27 09:02:22;;;;;;;25.48;16.92;;;11.40;99.90;;;;;;6216354;23;20692;-94
2021/11/27 09:04:48;;;;;;;21.50;15.23;;;11.30;99.90;;;;;;6216692;23;20169;-95
2021/11/27 09:07:16;;;;;;;25.65;16.80;;;10.90;99.90;;;;;;6217184;23;20276;-93
2021/11/27 09:09:45;;;;;;;26.05;18.80;;;10.50;99.90;;;;;;6216643;23;20253;-93
2021/11/27 09:12:13;;;;;;;27.17;17.42;;;10.00;99.90;;;;;;6226255;23;20158;-94
2021/11/27 09:14:42;;;;;;;25.13;16.40;;;9.50;99.90;;;;;;6216892;23;20631;-94
2021/11/27 09:17:08;;;;;;;23.65;17.00;;;9.20;99.90;;;;;;6215956;23;20189;-92
2021/11/27 09:19:34;;;;;;;27.00;16.90;;;9.20;99.90;;;;;;6214984;23;20169;-92
2021/11/27 09:22:02;;;;;;;24.67;17.05;;;9.40;99.90;;;;;;6215649;23;20595;-94
2021/11/27 09:24:29;;;;;;;23.77;15.30;;;9.70;99.90;;;;;;6216365;23;20168;-93
2021/11/27 09:26:55;;;;;;;25.15;15.68;;;10.20;99.90;;;;;;6224178;23;20221;-93
2021/11/27 09:29:21;;;;;;;25.77;16.10;;;10.80;99.90;;;;;;6223136;23;20170;-94
2021/11/27 09:31:48;;;;;;;26.20;15.80;;;11.30;99.90;;;;;;6216776;23;20407;-92
2021/11/27 09:34:16;;;;;;;24.63;16.88;;;11.80;99.90;;;;;;6216156;23;20681;-95
2021/11/27 09:36:43;;;;;;;26.00;16.42;;;12.20;99.90;;;;;;6216061;23;20599;-94
2021/11/27 09:39:11;;;;;;;25.20;14.77;;;12.40;99.90;;;;;;6216856;23;20329;-92
2021/11/27 09:41:41;;;;;;;23.50;15.15;;;12.60;99.90;;;;;;6229244;23;20178;-93
2021/11/27 09:44:08;;;;;;;22.65;15.98;;;12.70;99.90;;;;;;6214777;23;20158;-95
2021/11/27 09:46:40;;;;;;;25.95;16.95;;;12.70;99.90;;;;;;6217476;23;20203;-96
2021/11/27 09:49:09;;;;;;;27.23;17.33;;;12.80;99.90;;;;;;6216984;23;20162;-94
2021/11/27 09:51:38;;;;;;;26.08;16.90;;;12.60;99.90;;;;;;6216244;23;20432;-92
2021/11/27 09:54:08;;;;;;;21.25;15.38;;;12.30;99.90;;;;;;6216645;23;20190;-93
2021/11/27 09:56:34;;;;;;;56.40;32.10;;;12.10;99.90;;;;;;6217726;23;20182;-93
2021/11/27 09:59:02;;;;;;;24.85;17.10;;;12.00;99.90;;;;;;6239967;22;20181;-94
2021/11/27 10:01:32;;;;;;;20.70;14.30;;;11.90;99.90;;;;;;6219236;23;20236;-91
2021/11/27 10:04:06;;;;;;;22.50;15.82;;;11.90;99.90;;;;;;6212483;23;20622;-93
2021/11/27 10:06:44;;;;;;;20.90;14.65;;;11.80;99.90;;;;;;6215188;23;20189;-91
2021/11/27 10:09:19;;;;;;;22.92;15.05;;;11.70;99.90;;;;;;6217038;23;20158;-95
2021/11/27 10:11:47;;;;;;;20.73;14.25;;;11.70;99.90;;;;;;6219666;23;20256;-93
2021/11/27 10:14:17;;;;;;;20.92;14.48;;;11.60;99.90;;;;;;6231539;22;20205;-91
2021/11/27 10:17:05;;;;;;;20.77;14.50;;;11.50;99.90;;;;;;6216269;23;20185;-91
2021/11/27 10:19:43;;;;;;;22.83;16.05;;;11.40;99.90;;;;;;6227255;23;20158;-93
2021/11/27 10:22:19;;;;;;;25.45;15.18;;;11.30;99.90;;;;;;6220373;23;20166;-92
2021/11/27 10:24:48;;;;;;;19.52;13.75;;;11.30;99.90;;;;;;6221100;23;20161;-91
2021/11/27 10:27:29;;;;;;;20.10;13.63;;;11.20;99.90;;;;;;6225404;23;20162;-93
2021/11/27 10:30:09;;;;;;;20.35;12.27;;;11.30;99.90;;;;;;6222586;23;20174;-95
2021/11/27 10:32:39;;;;;;;24.48;15.63;;;11.40;99.90;;;;;;6217084;23;20293;-96
2021/11/27 10:35:13;;;;;;;19.63;13.20;;;11.30;99.90;;;;;;6215358;23;20197;-96
2021/11/27 10:37:41;;;;;;;25.30;15.10;;;11.20;99.90;;;;;;6214846;23;20204;-96
2021/11/27 10:40:10;;;;;;;21.70;13.95;;;11.10;99.90;;;;;;6223404;23;20247;-95
2021/11/27 10:42:40;;;;;;;18.77;12.07;;;11.10;99.90;;;;;;6214907;23;20166;-92
2021/11/27 10:45:12;;;;;;;23.30;14.52;;;11.10;99.90;;;;;;6214654;23;20181;-93
2021/11/27 10:47:43;;;;;;;18.67;13.30;;;11.00;99.90;;;;;;6214592;23;20154;-93
2021/11/27 10:50:17;;;;;;;21.52;13.20;;;11.00;99.90;;;;;;6216152;23;20240;-93
2021/11/27 10:52:45;;;;;;;19.08;13.05;;;11.00;99.90;;;;;;6223490;23;20177;-91
2021/11/27 10:55:17;;;;;;;24.05;15.30;;;11.00;99.90;;;;;;6215254;23;20193;-93
2021/11/27 10:57:52;;;;;;;22.08;13.65;;;11.00;99.90;;;;;;6215093;23;20216;-93
2021/11/27 11:00:40;;;;;;;22.60;13.65;;;10.90;99.90;;;;;;6213599;23;20195;-95
2021/11/27 11:03:27;;;;;;;21.58;14.45;;;11.00;99.90;;;;;;6228052;23;20193;-94
2021/11/27 11:05:55;;;;;;;22.92;14.48;;;10.90;99.90;;;;;;6215669;23;20210;-93
2021/11/27 11:08:36;;;;;;;22.98;15.60;;;10.90;99.90;;;;;;6215177;23;20162;-93
2021/11/27 11:11:23;;;;;;;23.15;13.27;;;10.90;99.90;;;;;;6215745;23;20269;-92
2021/11/27 11:13:57;;;;;;;23.23;14.85;;;10.80;99.90;;;;;;6206538;23;20205;-92
2021/11/27 11:16:32;;;;;;;16.02;11.98;;;10.80;99.90;;;;;;6217950;23;20168;-95
2021/11/27 11:19:13;;;;;;;20.40;13.63;;;10.80;99.90;;;;;;6213728;23;20146;-92
2021/11/27 11:21:58;;;;;;;20.08;12.73;;;10.70;99.90;;;;;;6215117;23;20181;-95
2021/11/27 11:24:26;;;;;;;20.40;14.02;;;10.70;99.90;;;;;;6214705;23;20165;-95
2021/11/27 11:26:57;;;;;;;18.55;12.75;;;10.80;99.90;;;;;;6211900;23;20200;-92
2021/11/27 11:30:01;;;;;;;18.27;10.60;;;10.80;99.90;;;;;;6220135;23;20189;-92
2021/11/27 11:32:31;;;;;;;16.38;11.65;;;10.90;99.90;;;;;;6214321;23;20157;-91
2021/11/27 11:35:01;;;;;;;21.08;12.70;;;10.90;99.90;;;;;;6215639;23;20202;-92
2021/11/27 11:37:28;;;;;;;15.63;10.00;;;11.00;99.90;;;;;;6212967;23;20168;-92
2021/11/27 11:39:55;;;;;;;15.18;9.93;;;11.20;99.90;;;;;;6196060;23;20175;-93
2021/11/27 11:42:24;;;;;;;12.52;9.35;;;11.20;99.90;;;;;;6163329;23;20158;-94
2021/11/27 11:44:52;;;;;;;15.38;11.43;;;11.20;99.90;;;;;;6164698;23;20159;-95
2021/11/27 11:47:21;;;;;;;12.95;9.70;;;11.20;99.90;;;;;;6163877;23;20181;-92
2021/11/27 11:49:54;;;;;;;14.02;9.52;;;11.20;99.90;;;;;;6163545;23;20197;-94
2021/11/27 11:52:37;;;;;;;14.52;9.65;;;11.30;99.90;;;;;;6166852;23;20162;-93
2021/11/27 11:55:13;;;;;;;18.00;11.65;;;11.30;99.90;;;;;;6163036;23;20206;-92
2021/11/27 11:58:01;;;;;;;17.15;9.38;;;11.40;99.90;;;;;;6162192;23;20415;-92
2021/11/27 12:00:33;;;;;;;13.05;8.55;;;11.40;99.90;;;;;;6163163;23;20249;-92
2021/11/27 12:03:12;;;;;;;13.45;9.77;;;11.40;99.90;;;;;;6162332;23;20158;-92
2021/11/27 12:05:58;;;;;;;11.10;9.07;;;11.40;99.90;;;;;;6173605;23;20265;-95
2021/11/27 12:08:49;;;;;;;12.60;8.23;;;11.40;99.90;;;;;;6163375;23;20173;-93
2021/11/27 12:12:02;;;;;;;12.45;8.05;;;11.50;99.90;;;;;;6162441;23;20182;-94
2021/11/27 12:14:29;;;;;;;11.80;8.13;;;11.50;99.90;;;;;;6158673;23;20202;-93
2021/11/27 12:17:15;;;;;;;12.18;8.60;;;11.50;99.90;;;;;;6187650;23;20166;-94
2021/11/27 12:19:58;;;;;;;15.90;9.68;;;11.40;99.90;;;;;;6162752;23;20271;-92
2021/11/27 12:22:23;;;;;;;17.02;11.77;;;11.40;99.90;;;;;;6172546;23;20155;-91
2021/11/27 12:25:04;;;;;;;15.17;9.63;;;11.40;99.90;;;;;;6164171;23;20193;-92
2021/11/27 12:27:31;;;;;;;15.35;8.50;;;11.50;99.90;;;;;;6162787;23;20166;-91
2021/11/27 12:30:09;;;;;;;12.80;9.18;;;11.60;99.90;;;;;;6165099;23;20179;-95
2021/11/27 12:32:39;;;;;;;13.40;9.45;;;11.70;99.90;;;;;;6164150;23;20245;-95
2021/11/27 12:35:30;;;;;;;15.35;11.18;;;11.70;99.90;;;;;;6171441;23;20210;-95
2021/11/27 12:38:08;;;;;;;16.48;11.02;;;11.80;99.90;;;;;;6168370;23;20200;-96
2021/11/27 12:40:46;;;;;;;18.60;11.85;;;11.80;99.90;;;;;;6228786;22;20186;-95
2021/11/27 12:43:15;;;;;;;15.10;9.93;;;11.90;99.90;;;;;;6231492;23;20166;-94
2021/11/27 12:45:43;;;;;;;17.13;11.57;;;11.90;99.90;;;;;;6232731;23;20181;-92